sensor_id;sensor_type;location;lat;lon;timestamp;pressure;altitude;pressure_sealevel;temperature;humidity
12073;BME280;6098;49.004;8.372;2023-09-30T00:04:41;101232.48;;;19.78;78.41
12073;BME280;6098;49.004;8.372;2023-09-30T00:19:32;101225.14;;;19.67;78.80
12073;BME280;6098;49.004;8.372;2023-09-30T00:34:24;101257.36;;;19.60;78.99
12073;BME280;6098;49.004;8.372;2023-09-30T00:49:16;101249.73;;;19.54;79.03
12073;BME280;6098;49.004;8.372;2023-09-30T01:04:07;101235.72;;;19.41;78.98
12073;BME280;6098;49.004;8.372;2023-09-30T01:19:00;101239.75;;;19.34;79.74
12073;BME280;6098;49.004;8.372;2023-09-30T01:33:52;101240.83;;;19.30;79.91
12073;BME280;6098;49.004;8.372;2023-09-30T01:48:45;101257.97;;;19.29;80.00
12073;BME280;6098;49.004;8.372;2023-09-30T02:03:41;101271.34;;;19.29;80.02
12073;BME280;6098;49.004;8.372;2023-09-30T02:18:32;101256.55;;;19.29;80.10
12073;BME280;6098;49.004;8.372;2023-09-30T02:33:35;101251.95;;;19.24;80.87
12073;BME280;6098;49.004;8.372;2023-09-30T02:48:29;101267.40;;;19.21;81.21
12073;BME280;6098;49.004;8.372;2023-09-30T03:03:21;101268.05;;;19.10;81.94
12073;BME280;6098;49.004;8.372;2023-09-30T03:18:13;101280.78;;;19.07;82.42
12073;BME280;6098;49.004;8.372;2023-09-30T03:33:05;101252.66;;;19.05;82.34
12073;BME280;6098;49.004;8.372;2023-09-30T03:47:57;101284.89;;;18.98;75.66
12073;BME280;6098;49.004;8.372;2023-09-30T04:02:50;101283.21;;;18.96;75.80
12073;BME280;6098;49.004;8.372;2023-09-30T04:17:41;101300.94;;;18.84;73.58
12073;BME280;6098;49.004;8.372;2023-09-30T04:32:33;101308.35;;;18.73;72.50
12073;BME280;6098;49.004;8.372;2023-09-30T04:47:25;101307.61;;;18.62;72.44
12073;BME280;6098;49.004;8.372;2023-09-30T05:02:17;101306.14;;;18.49;72.46
12073;BME280;6098;49.004;8.372;2023-09-30T05:17:09;101320.17;;;18.38;73.20
12073;BME280;6098;49.004;8.372;2023-09-30T05:32:01;101325.40;;;18.24;73.83
12073;BME280;6098;49.004;8.372;2023-09-30T05:46:53;101327.22;;;18.16;74.72
12073;BME280;6098;49.004;8.372;2023-09-30T06:01:44;101361.63;;;18.09;74.92
12073;BME280;6098;49.004;8.372;2023-09-30T06:16:36;101378.02;;;18.11;75.76
12073;BME280;6098;49.004;8.372;2023-09-30T06:31:28;101392.63;;;18.06;76.35
12073;BME280;6098;49.004;8.372;2023-09-30T06:46:19;101384.56;;;17.81;75.67
12073;BME280;6098;49.004;8.372;2023-09-30T07:01:14;101390.86;;;17.72;75.47
12073;BME280;6098;49.004;8.372;2023-09-30T07:16:04;101415.06;;;17.79;75.75
12073;BME280;6098;49.004;8.372;2023-09-30T07:30:57;101416.62;;;17.84;76.15
12073;BME280;6098;49.004;8.372;2023-09-30T07:45:49;101425.94;;;18.10;76.08
12073;BME280;6098;49.004;8.372;2023-09-30T08:00:42;101425.31;;;18.38;75.77
12073;BME280;6098;49.004;8.372;2023-09-30T08:15:35;101431.98;;;18.56;74.37
12073;BME280;6098;49.004;8.372;2023-09-30T08:30:28;101404.31;;;18.78;73.79
12073;BME280;6098;49.004;8.372;2023-09-30T08:45:21;101413.41;;;18.99;73.13
12073;BME280;6098;49.004;8.372;2023-09-30T09:00:13;101434.53;;;19.20;72.06
12073;BME280;6098;49.004;8.372;2023-09-30T09:15:06;101408.39;;;19.31;71.46
12073;BME280;6098;49.004;8.372;2023-09-30T09:30:15;101405.09;;;19.56;70.60
12073;BME280;6098;49.004;8.372;2023-09-30T09:45:12;101403.05;;;19.82;69.58
12073;BME280;6098;49.004;8.372;2023-09-30T10:00:06;101407.43;;;20.06;68.56
12073;BME280;6098;49.004;8.372;2023-09-30T10:15:00;101386.67;;;20.08;67.27
12073;BME280;6098;49.004;8.372;2023-09-30T11:00:37;101364.14;;;20.65;63.23
12073;BME280;6098;49.004;8.372;2023-09-30T11:15:43;101352.47;;;20.79;63.05
12073;BME280;6098;49.004;8.372;2023-09-30T11:30:53;101348.62;;;21.03;60.99
12073;BME280;6098;49.004;8.372;2023-09-30T11:45:47;101370.27;;;21.48;58.58
12073;BME280;6098;49.004;8.372;2023-09-30T12:00:41;101352.73;;;21.68;55.51
12073;BME280;6098;49.004;8.372;2023-09-30T12:15:32;101352.45;;;21.97;55.90
12073;BME280;6098;49.004;8.372;2023-09-30T12:30:25;101332.38;;;22.19;52.06
12073;BME280;6098;49.004;8.372;2023-09-30T12:45:18;101331.99;;;22.31;51.77
12073;BME280;6098;49.004;8.372;2023-09-30T13:00:11;101298.11;;;22.63;51.94
12073;BME280;6098;49.004;8.372;2023-09-30T13:15:06;101286.11;;;22.85;50.76
12073;BME280;6098;49.004;8.372;2023-09-30T13:29:59;101300.23;;;22.83;46.18
12073;BME280;6098;49.004;8.372;2023-09-30T13:44:52;101286.97;;;22.85;48.45
12073;BME280;6098;49.004;8.372;2023-09-30T13:59:44;101273.45;;;22.97;48.19
12073;BME280;6098;49.004;8.372;2023-09-30T14:14:36;101250.26;;;23.28;48.49
12073;BME280;6098;49.004;8.372;2023-09-30T14:29:29;101239.44;;;23.28;47.60
12073;BME280;6098;49.004;8.372;2023-09-30T14:44:20;101233.91;;;22.90;47.67
12073;BME280;6098;49.004;8.372;2023-09-30T14:59:12;101231.29;;;22.65;48.44
12073;BME280;6098;49.004;8.372;2023-09-30T15:14:05;101229.45;;;22.53;49.37
12073;BME280;6098;49.004;8.372;2023-09-30T15:28:57;101236.28;;;22.34;49.93
12073;BME280;6098;49.004;8.372;2023-09-30T15:43:50;101231.17;;;22.24;50.01
12073;BME280;6098;49.004;8.372;2023-09-30T15:58:42;101222.75;;;22.29;51.14
12073;BME280;6098;49.004;8.372;2023-09-30T16:13:33;101226.89;;;22.15;51.54
12073;BME280;6098;49.004;8.372;2023-09-30T16:28:26;101232.17;;;21.99;51.68
12073;BME280;6098;49.004;8.372;2023-09-30T16:43:19;101250.91;;;21.89;53.50
12073;BME280;6098;49.004;8.372;2023-09-30T16:58:11;101251.41;;;21.69;53.68
12073;BME280;6098;49.004;8.372;2023-09-30T17:13:04;101248.37;;;21.55;54.34
12073;BME280;6098;49.004;8.372;2023-09-30T17:27:57;101241.94;;;21.38;54.52
12073;BME280;6098;49.004;8.372;2023-09-30T17:42:49;101252.22;;;21.19;56.29
12073;BME280;6098;49.004;8.372;2023-09-30T17:57:41;101253.40;;;20.96;57.38
12073;BME280;6098;49.004;8.372;2023-09-30T18:12:34;101262.44;;;20.81;57.71
12073;BME280;6098;49.004;8.372;2023-09-30T18:27:26;101273.66;;;20.62;58.89
12073;BME280;6098;49.004;8.372;2023-09-30T18:42:19;101283.11;;;20.48;59.97
12073;BME280;6098;49.004;8.372;2023-09-30T18:57:14;101295.70;;;20.27;60.33
12073;BME280;6098;49.004;8.372;2023-09-30T19:12:05;101294.89;;;19.98;61.70
12073;BME280;6098;49.004;8.372;2023-09-30T19:26:58;101297.30;;;19.81;62.32
12073;BME280;6098;49.004;8.372;2023-09-30T19:41:50;101297.34;;;19.66;62.35
12073;BME280;6098;49.004;8.372;2023-09-30T19:56:42;101299.45;;;19.46;63.70
12073;BME280;6098;49.004;8.372;2023-09-30T20:11:36;101290.70;;;19.28;64.04
12073;BME280;6098;49.004;8.372;2023-09-30T20:26:28;101289.12;;;19.10;64.43
12073;BME280;6098;49.004;8.372;2023-09-30T20:41:20;101293.62;;;18.95;65.39
12073;BME280;6098;49.004;8.372;2023-09-30T20:56:11;101277.95;;;18.79;65.70
12073;BME280;6098;49.004;8.372;2023-09-30T21:11:06;101297.61;;;18.57;67.18
12073;BME280;6098;49.004;8.372;2023-09-30T22:14:45;101342.70;;;17.70;73.11
12073;BME280;6098;49.004;8.372;2023-09-30T22:46:50;101343.36;;;16.96;76.37
